Time;durP1;ratioP1;P1;durP2;ratioP2;P2;SDS_P1;SDS_P2;PMS_P1;PMS_P2;Temp;Humidity;BMP_temperature;BMP_pressure;BME280_temperature;BME280_humidity;BME280_pressure;Samples;Min_cycle;Max_cycle;Signal;HPM_P1;HPM_P2
2021/12/26 00:00:20;;;;;;;;;21.50;17.00;;;;;10.36;80.04;99776.31;5017270;28;45508;-58
2021/12/26 00:02:46;;;;;;;;;27.00;22.20;;;;;10.33;79.66;99774.88;5017123;28;45303;-57
2021/12/26 00:05:12;;;;;;;;;29.25;22.00;;;;;10.30;80.01;99761.66;5017600;28;45473;-60
2021/12/26 00:07:37;;;;;;;;;22.00;20.00;;;;;10.35;80.15;99761.75;5015913;28;47841;-58
2021/12/26 00:10:05;;;;;;;;;27.75;20.25;;;;;10.38;79.34;99765.94;5016933;28;45362;-57
2021/12/26 00:12:30;;;;;;;;;31.00;28.80;;;;;10.27;79.82;99748.38;5017277;28;45263;-59
2021/12/26 00:14:57;;;;;;;;;25.75;22.75;;;;;10.40;80.03;99758.31;5015861;28;45669;-58
2021/12/26 00:17:22;;;;;;;;;24.60;21.60;;;;;10.40;79.50;99764.63;5016734;28;46127;-55
2021/12/26 00:19:48;;;;;;;;;22.50;20.75;;;;;10.38;78.91;99758.56;5016951;28;45414;-60
2021/12/26 00:22:14;;;;;;;;;26.00;22.75;;;;;10.37;80.35;99756.88;5016049;28;45490;-59
2021/12/26 00:24:39;;;;;;;;;25.75;24.75;;;;;10.42;80.22;99758.94;5016717;28;45748;-58
2021/12/26 00:27:05;;;;;;;;;25.00;23.25;;;;;10.37;79.67;99747.81;5016434;28;45459;-60
2021/12/26 00:29:30;;;;;;;;;29.50;22.50;;;;;10.38;79.52;99755.81;5002377;28;45760;-59
2021/12/26 00:31:56;;;;;;;;;26.25;22.25;;;;;10.39;79.69;99753.88;5037007;28;45369;-58
2021/12/26 00:34:21;;;;;;;;;24.50;24.50;;;;;10.35;79.18;99750.78;5036628;28;45578;-60
2021/12/26 00:36:47;;;;;;;;;28.75;25.00;;;;;10.33;80.00;99738.38;5035831;28;46770;-58
2021/12/26 00:39:15;;;;;;;;;28.00;25.25;;;;;10.37;80.12;99734.94;4999716;28;45438;-55
2021/12/26 00:41:40;;;;;;;;;30.20;27.20;;;;;10.39;80.06;99730.06;5016331;28;45387;-59
2021/12/26 00:44:07;;;;;;;;;26.00;22.50;;;;;10.18;79.26;99701.25;5016816;28;45312;-55
2021/12/26 00:46:32;;;;;;;;;25.80;18.60;;;;;10.28;79.17;99733.59;5016510;28;45458;-57
2021/12/26 00:48:58;;;;;;;;;25.75;25.00;;;;;10.26;79.77;99730.25;5016428;28;45503;-61
2021/12/26 00:51:23;;;;;;;;;27.25;24.00;;;;;10.24;79.44;99732.41;4998667;28;45347;-59
2021/12/26 00:53:49;;;;;;;;;28.25;23.50;;;;;10.22;79.45;99740.88;4982771;28;45551;-60
2021/12/26 00:56:15;;;;;;;;;28.75;25.00;;;;;10.22;78.72;99740.88;5016392;28;46227;-61
2021/12/26 00:58:40;;;;;;;;;29.75;26.00;;;;;9.99;79.39;99709.56;5016165;28;45257;-57
2021/12/26 01:01:06;;;;;;;;;30.25;22.75;;;;;10.18;79.52;99750.63;4998607;28;45463;-61
2021/12/26 01:03:31;;;;;;;;;26.25;21.00;;;;;10.20;79.12;99742.16;5016383;28;45314;-60
2021/12/26 01:05:57;;;;;;;;;22.75;21.50;;;;;10.20;79.77;99743.00;4998542;28;45618;-58
2021/12/26 01:08:30;;;;;;;;;27.25;21.75;;;;;10.21;79.40;99747.44;5016223;28;45385;-60
2021/12/26 01:11:09;;;;;;;;;24.60;21.60;;;;;10.16;79.38;99737.13;5016616;28;45520;-60
2021/12/26 01:13:37;;;;;;;;;22.20;21.20;;;;;10.18;78.96;99747.88;4998710;28;45588;-61
2021/12/26 01:16:05;;;;;;;;;25.20;19.80;;;;;10.17;79.38;99744.31;5015914;28;45947;-61
2021/12/26 01:18:34;;;;;;;;;26.40;22.20;;;;;10.17;79.48;99744.31;5015794;28;45352;-61
2021/12/26 01:21:05;;;;;;;;;22.80;18.60;;;;;9.89;79.43;99706.56;5014651;28;45451;-58
2021/12/26 01:23:30;;;;;;;;;27.40;23.20;;;;;10.11;79.39;99744.41;5016139;28;46105;-57
2021/12/26 01:25:56;;;;;;;;;25.75;20.25;;;;;10.10;79.46;99737.25;4998305;28;46437;-57
2021/12/26 01:28:23;;;;;;;;;28.75;22.75;;;;;10.17;80.28;99744.31;4998012;28;45386;-61
2021/12/26 01:30:49;;;;;;;;;28.20;21.20;;;;;10.13;79.30;99737.63;5029587;28;45188;-59
2021/12/26 01:33:16;;;;;;;;;32.00;25.00;;;;;9.97;79.47;99716.38;5018532;28;45354;-57
2021/12/26 01:35:42;;;;;;;;;27.00;22.60;;;;;10.20;79.33;99751.25;5017448;28;46680;-61
2021/12/26 01:38:10;;;;;;;;;26.50;22.50;;;;;9.99;79.33;99708.72;5018075;28;45460;-60
2021/12/26 01:40:38;;;;;;;;;27.20;21.40;;;;;10.23;79.71;99741.69;5035772;28;45379;-59
2021/12/26 01:43:04;;;;;;;;;31.00;27.20;;;;;10.26;79.98;99741.22;5018291;28;45484;-58
2021/12/26 01:45:30;;;;;;;;;29.25;27.00;;;;;10.26;79.23;99728.34;5017700;28;46972;-61
2021/12/26 01:47:59;;;;;;;;;24.25;24.25;;;;;10.27;79.49;99732.78;5035478;28;45473;-59
2021/12/26 01:50:25;;;;;;;;;32.20;28.20;;;;;10.06;79.15;99692.16;5017654;28;45370;-59
2021/12/26 01:52:50;;;;;;;;;27.80;22.00;;;;;10.28;79.65;99730.84;5035869;28;45312;-57
2021/12/26 01:58:16;;;;;;;;;28.60;22.80;;;;;10.31;79.59;99731.22;5012200;28;45755;-58
2021/12/26 02:00:44;;;;;;;;;25.00;24.40;;;;;10.03;80.09;99682.50;5035566;28;45378;-57
2021/12/26 02:03:09;;;;;;;;;27.00;20.60;;;;;10.35;79.60;99734.31;5035451;28;45389;-58
2021/12/26 02:05:35;;;;;;;;;25.75;24.25;;;;;10.08;79.60;99696.34;5035030;28;45378;-59
2021/12/26 02:08:01;;;;;;;;;23.00;22.75;;;;;10.24;78.99;99746.13;5035051;28;45392;-56
2021/12/26 02:10:26;;;;;;;;;32.75;21.25;;;;;10.23;79.65;99742.53;5017591;28;45830;-60
2021/12/26 02:12:52;;;;;;;;;22.50;22.00;;;;;10.19;79.84;99744.06;5035450;28;45514;-61
2021/12/26 02:15:17;;;;;;;;;28.50;22.50;;;;;10.15;79.35;99740.13;5035024;28;45328;-54
2021/12/26 02:17:43;;;;;;;;;32.50;25.25;;;;;10.09;80.40;99747.38;5035263;28;45279;-59
2021/12/26 02:20:17;;;;;;;;;30.75;24.75;;;;;9.93;80.30;99715.16;5017290;28;45455;-53
2021/12/26 02:22:47;;;;;;;;;22.00;19.00;;;;;10.11;80.02;99737.03;5035805;28;45311;-60
2021/12/26 02:27:51;;;;;;;;;32.20;25.40;;;;;10.12;80.13;99744.19;5034819;28;45383;-56
2021/12/26 02:30:16;;;;;;;;;28.50;24.75;;;;;10.08;80.27;99740.22;5030385;28;45422;-56
2021/12/26 02:32:45;;;;;;;;;28.50;24.00;;;;;10.10;79.74;99734.50;5015337;28;45262;-61
2021/12/26 02:35:11;;;;;;;;;23.00;23.00;;;;;10.12;80.09;99741.44;4996389;28;45811;-61
2021/12/26 02:37:37;;;;;;;;;26.00;20.50;;;;;10.09;79.43;99728.19;4997395;28;45333;-59
2021/12/26 02:40:04;;;;;;;;;25.50;20.50;;;;;10.06;80.47;99722.31;5014701;28;45447;-60
2021/12/26 02:42:29;;;;;;;;;25.60;23.00;;;;;10.16;80.22;99737.13;5015237;28;45249;-60
2021/12/26 02:44:55;;;;;;;;;27.00;21.25;;;;;10.16;80.33;99720.69;5014881;28;45531;-57
2021/12/26 02:47:34;;;;;;;;;28.25;24.00;;;;;9.62;79.51;99649.38;5014947;28;45398;-61
2021/12/26 02:50:01;;;;;;;;;29.80;22.60;;;;;10.04;79.15;99715.19;5014780;28;45453;-60
2021/12/26 02:52:27;;;;;;;;;20.20;18.20;;;;;10.08;79.54;99709.25;5015381;28;45317;-59
2021/12/26 02:54:52;;;;;;;;;23.40;20.20;;;;;10.06;80.19;99720.44;4996769;28;47498;-56
2021/12/26 02:57:18;;;;;;;;;28.25;22.75;;;;;10.04;80.04;99715.19;5014833;28;45352;-61
2021/12/26 02:59:43;;;;;;;;;21.75;19.50;;;;;10.11;79.51;99722.47;5016131;28;45434;-58
2021/12/26 03:02:09;;;;;;;;;19.75;19.75;;;;;10.09;79.98;99727.34;5000771;28;45307;-60
2021/12/26 03:04:35;;;;;;;;;27.25;23.00;;;;;10.10;80.05;99718.91;5017902;28;45557;-61
2021/12/26 03:07:04;;;;;;;;;30.25;23.75;;;;;9.82;79.58;99675.66;5018260;28;45367;-58
2021/12/26 03:09:43;;;;;;;;;23.80;20.60;;;;;10.12;79.65;99721.38;5000581;28;45358;-59
2021/12/26 03:12:09;;;;;;;;;24.60;21.60;;;;;9.94;79.71;99692.13;5018833;28;45504;-57
2021/12/26 03:14:35;;;;;;;;;31.00;25.40;;;;;10.07;79.71;99713.88;4983754;28;45598;-61
2021/12/26 03:17:00;;;;;;;;;29.50;25.00;;;;;10.14;79.24;99725.56;5018229;28;45345;-59
2021/12/26 03:19:26;;;;;;;;;24.75;21.00;;;;;10.14;79.73;99727.50;5018215;28;45347;-60
2021/12/26 03:21:52;;;;;;;;;23.00;23.00;;;;;10.14;79.55;99720.09;5018140;28;45616;-64
2021/12/26 03:24:17;;;;;;;;;28.25;22.00;;;;;9.96;79.83;99688.09;5007343;28;45399;-57
2021/12/26 03:26:43;;;;;;;;;27.25;20.00;;;;;10.13;79.85;99720.31;5018139;28;45268;-60
2021/12/26 03:29:08;;;;;;;;;23.75;23.75;;;;;10.14;80.02;99717.34;5018648;28;45300;-59
2021/12/26 03:31:34;;;;;;;;;25.00;24.00;;;;;10.15;79.20;99718.19;5030602;28;45499;-55
2021/12/26 03:34:02;;;;;;;;;26.00;25.00;;;;;10.11;79.75;99716.97;5038086;28;45913;-59
2021/12/26 03:36:27;;;;;;;;;27.60;23.80;;;;;10.12;79.41;99722.25;5037414;28;45400;-58
2021/12/26 03:38:53;;;;;;;;;30.25;23.75;;;;;10.08;79.42;99717.47;5036188;28;45374;-57
2021/12/26 03:41:20;;;;;;;;;23.50;21.50;;;;;10.11;79.64;99717.84;5037747;28;45646;-60
2021/12/26 03:43:46;;;;;;;;;30.60;23.60;;;;;10.12;79.95;99718.66;5037476;28;45490;-61
2021/12/26 03:46:11;;;;;;;;;29.00;28.25;;;;;10.09;78.96;99716.38;5037456;28;45429;-60
2021/12/26 03:48:37;;;;;;;;;24.00;23.50;;;;;10.06;79.86;99714.94;5037791;28;45385;-60
2021/12/26 03:51:04;;;;;;;;;31.50;23.50;;;;;9.99;79.82;99708.72;5053070;28;45575;-59
2021/12/26 03:53:30;;;;;;;;;31.00;25.60;;;;;10.02;80.01;99720.06;5037432;28;45500;-58
2021/12/26 03:55:56;;;;;;;;;29.25;26.00;;;;;10.01;79.20;99712.91;5035847;28;45334;-60
2021/12/26 03:58:21;;;;;;;;;29.75;24.75;;;;;10.02;79.22;99711.00;5037722;28;45418;-60
2021/12/26 04:00:47;;;;;;;;;34.75;25.50;;;;;9.91;80.03;99687.97;5037601;28;45638;-58
2021/12/26 04:03:13;;;;;;;;;32.20;28.20;;;;;10.01;79.99;99706.59;5035702;28;46713;-55
2021/12/26 04:05:38;;;;;;;;;26.00;23.25;;;;;9.98;79.92;99710.63;5037357;28;45435;-58
2021/12/26 04:08:04;;;;;;;;;27.00;23.75;;;;;9.95;80.05;99700.13;5037384;28;45507;-57
2021/12/26 04:10:30;;;;;;;;;33.75;25.75;;;;;10.00;80.27;99699.44;5036705;28;45289;-58
2021/12/26 04:12:55;;;;;;;;;25.50;22.50;;;;;9.98;79.96;99691.44;5035466;28;47766;-60
2021/12/26 04:15:21;;;;;;;;;24.25;23.25;;;;;9.98;79.78;99688.69;5037281;28;45318;-57
2021/12/26 04:17:48;;;;;;;;;25.60;20.60;;;;;9.99;79.94;99692.28;5037466;28;45336;-60
2021/12/26 04:20:14;;;;;;;;;25.40;25.40;;;;;9.89;80.23;99674.47;5035721;28;45399;-59
2021/12/26 04:22:39;;;;;;;;;29.25;27.25;;;;;9.98;80.62;99690.63;5037182;28;45413;-57
2021/12/26 04:25:05;;;;;;;;;28.25;26.25;;;;;9.96;80.05;99687.25;5037213;28;45490;-60
2021/12/26 04:27:31;;;;;;;;;25.00;24.50;;;;;9.96;80.18;99690.84;5037223;28;45496;-59
2021/12/26 04:29:57;;;;;;;;;26.50;22.50;;;;;9.79;80.20;99656.94;5037471;28;45437;-55
2021/12/26 04:32:22;;;;;;;;;30.60;27.80;;;;;9.90;79.95;99676.19;5017559;28;46458;-59
2021/12/26 04:34:48;;;;;;;;;22.75;22.00;;;;;9.94;79.80;99678.44;5016999;28;45395;-62
2021/12/26 04:37:13;;;;;;;;;29.00;26.00;;;;;9.95;80.30;99686.44;5016837;28;45391;-57
2021/12/26 04:39:39;;;;;;;;;23.75;22.50;;;;;9.93;79.75;99693.22;5017375;28;45351;-61
2021/12/26 04:42:05;;;;;;;;;23.00;23.00;;;;;9.89;79.85;99690.09;5016726;28;45463;-57
2021/12/26 04:44:30;;;;;;;;;28.00;25.60;;;;;9.89;80.26;99688.19;5016372;28;45564;-60
2021/12/26 04:46:56;;;;;;;;;26.75;26.00;;;;;9.87;80.72;99684.84;5016779;28;45322;-61
2021/12/26 04:49:22;;;;;;;;;30.25;28.25;;;;;9.92;79.99;99680.59;5017253;28;45336;-58
2021/12/26 04:51:47;;;;;;;;;30.25;24.50;;;;;9.93;80.75;99682.25;5016512;28;46171;-60
2021/12/26 04:54:13;;;;;;;;;32.50;24.25;;;;;9.93;80.99;99677.59;5016757;28;45536;-57
2021/12/26 04:56:38;;;;;;;;;23.75;21.75;;;;;9.92;80.50;99678.66;5016708;28;45442;-56
2021/12/26 04:59:04;;;;;;;;;27.00;22.00;;;;;9.73;80.79;99655.97;4999287;28;45536;-60
2021/12/26 05:01:30;;;;;;;;;24.50;24.25;;;;;9.88;80.84;99677.47;5014778;28;46428;-59
2021/12/26 05:03:55;;;;;;;;;23.75;19.75;;;;;9.83;80.48;99663.63;4998402;28;45503;-58
2021/12/26 05:06:21;;;;;;;;;24.50;20.50;;;;;9.94;80.87;99673.81;4998650;28;45298;-59
2021/12/26 05:08:46;;;;;;;;;29.00;20.50;;;;;9.70;80.14;99642.72;5016685;28;45619;-58
2021/12/26 05:11:12;;;;;;;;;23.75;21.50;;;;;9.87;81.17;99665.66;5016115;28;46305;-61
2021/12/26 05:13:37;;;;;;;;;23.75;23.75;;;;;9.86;81.18;99666.75;4998636;28;45823;-61
2021/12/26 05:16:03;;;;;;;;;21.50;20.00;;;;;9.84;81.37;99668.03;5016409;28;45430;-59
2021/12/26 05:18:29;;;;;;;;;27.75;20.75;;;;;9.81;80.92;99674.00;5016552;28;45478;-57
2021/12/26 05:20:56;;;;;;;;;27.50;23.50;;;;;9.63;81.80;99649.16;4997914;28;47035;-60
2021/12/26 05:23:22;;;;;;;;;25.00;21.80;;;;;9.61;81.16;99642.25;4997853;28;45816;-57
2021/12/26 05:25:47;;;;;;;;;27.80;21.40;;;;;9.79;81.80;99671.50;5016422;28;45276;-54
2021/12/26 05:28:13;;;;;;;;;27.00;24.00;;;;;9.80;80.68;99659.44;5016244;28;45642;-62
2021/12/26 05:30:38;;;;;;;;;22.75;22.00;;;;;9.79;81.29;99659.69;5020304;28;46266;-60
2021/12/26 05:33:04;;;;;;;;;23.00;21.75;;;;;9.82;81.10;99662.78;5035770;28;45466;-59
2021/12/26 05:35:31;;;;;;;;;24.50;21.00;;;;;9.83;81.17;99653.50;5017731;28;45612;-61
2021/12/26 05:37:57;;;;;;;;;24.80;21.00;;;;;9.81;80.84;99650.16;5036082;28;45233;-60
2021/12/26 05:40:23;;;;;;;;;29.00;23.50;;;;;9.88;81.89;99661.84;5035432;28;46737;-58
2021/12/26 05:42:48;;;;;;;;;34.00;25.00;;;;;9.76;81.62;99636.31;5035315;28;45460;-61
2021/12/26 05:45:14;;;;;;;;;27.75;24.75;;;;;9.87;81.78;99660.19;5017716;28;45330;-59
2021/12/26 05:47:39;;;;;;;;;26.25;20.75;;;;;9.85;81.17;99662.34;5035779;28;45450;-53
2021/12/26 05:50:06;;;;;;;;;23.75;19.50;;;;;9.70;81.84;99626.28;5035633;28;45299;-61
2021/12/26 05:52:31;;;;;;;;;24.60;20.80;;;;;9.84;81.60;99648.84;5017089;28;45374;-61
2021/12/26 05:54:57;;;;;;;;;30.00;23.75;;;;;9.91;81.55;99657.81;5035659;28;45383;-57
2021/12/26 05:57:22;;;;;;;;;22.50;18.50;;;;;9.88;80.65;99659.09;5035319;28;45313;-62
2021/12/26 05:59:48;;;;;;;;;25.75;20.25;;;;;9.83;80.95;99649.94;5035240;28;46391;-60
2021/12/26 06:02:14;;;;;;;;;24.25;22.75;;;;;9.94;80.38;99662.00;5035229;28;45526;-57
2021/12/26 06:04:39;;;;;;;;;25.25;22.50;;;;;9.96;81.36;99666.16;5035455;28;45374;-62
2021/12/26 06:07:05;;;;;;;;;24.50;23.50;;;;;9.96;81.43;99662.59;5035683;28;45560;-58
2021/12/26 06:09:30;;;;;;;;;30.25;24.25;;;;;9.97;81.35;99664.28;5034768;28;46621;-57
2021/12/26 06:11:56;;;;;;;;;21.00;18.00;;;;;9.90;81.02;99654.25;5035208;28;45388;-60
2021/12/26 06:14:21;;;;;;;;;24.25;23.00;;;;;9.97;80.52;99656.88;5017641;28;45335;-56
2021/12/26 06:16:47;;;;;;;;;28.50;20.75;;;;;10.03;80.86;99663.31;5017530;28;45997;-59
2021/12/26 06:19:12;;;;;;;;;19.25;19.00;;;;;10.03;80.42;99664.16;5034862;28;46032;-61
2021/12/26 06:21:38;;;;;;;;;23.25;17.75;;;;;10.01;81.35;99651.75;5017023;28;45483;-59
2021/12/26 06:24:04;;;;;;;;;23.00;19.75;;;;;10.07;80.94;99664.53;5022510;28;45409;-60
2021/12/26 06:26:30;;;;;;;;;24.75;23.50;;;;;9.86;80.37;99625.63;5028929;28;45323;-62
2021/12/26 06:28:55;;;;;;;;;22.25;19.50;;;;;10.08;81.06;99657.97;5020008;28;46202;-60
2021/12/26 06:31:21;;;;;;;;;18.75;17.75;;;;;9.60;80.57;99577.53;5033574;28;45453;-60
2021/12/26 06:33:46;;;;;;;;;21.75;19.50;;;;;10.07;80.03;99653.56;5034037;28;45398;-59
2021/12/26 06:36:12;;;;;;;;;24.00;19.00;;;;;10.14;80.61;99667.19;5034921;28;45622;-54
2021/12/26 06:38:38;;;;;;;;;20.75;19.00;;;;;10.15;80.51;99658.69;5034857;28;46375;-57
2021/12/26 06:41:04;;;;;;;;;17.25;15.00;;;;;10.12;80.83;99652.84;5033631;28;45371;-61
2021/12/26 06:43:29;;;;;;;;;21.80;18.60;;;;;10.15;80.35;99655.94;5034516;28;45263;-58
2021/12/26 06:45:55;;;;;;;;;17.25;17.25;;;;;10.17;80.52;99658.47;5035154;28;45346;-59
2021/12/26 06:48:21;;;;;;;;;29.75;21.50;;;;;10.19;80.35;99650.81;5034388;28;45486;-58
2021/12/26 06:50:46;;;;;;;;;20.00;18.25;;;;;10.21;80.05;99651.44;4970757;28;45474;-57
2021/12/26 06:53:12;;;;;;;;;18.00;18.00;;;;;10.23;80.70;99648.44;5032152;28;45445;-59
2021/12/26 06:55:38;;;;;;;;;20.25;18.75;;;;;10.26;80.31;99645.25;5033633;28;45681;-59
2021/12/26 06:58:04;;;;;;;;;20.00;17.40;;;;;10.29;79.65;99645.59;5033107;28;46265;-58
2021/12/26 07:00:29;;;;;;;;;17.75;15.00;;;;;10.23;79.72;99643.81;5033288;28;46071;-53
2021/12/26 07:02:55;;;;;;;;;18.50;16.50;;;;;10.22;79.83;99642.16;5033088;28;45406;-54
2021/12/26 07:05:20;;;;;;;;;16.75;16.75;;;;;10.12;80.01;99626.28;5033195;28;45527;-53
2021/12/26 07:07:46;;;;;;;;;14.75;14.00;;;;;10.27;80.14;99644.16;5016296;28;46460;-59
2021/12/26 07:10:12;;;;;;;;;21.50;19.50;;;;;10.12;79.94;99625.44;5034368;28;45264;-62
2021/12/26 07:12:37;;;;;;;;;22.00;18.00;;;;;10.26;81.01;99648.81;5034692;28;45309;-56
2021/12/26 07:15:03;;;;;;;;;18.00;18.00;;;;;10.28;80.95;99648.56;5034880;28;45633;-60
2021/12/26 07:17:29;;;;;;;;;20.80;15.20;;;;;10.29;80.27;99653.00;5032389;28;45618;-62
2021/12/26 07:19:55;;;;;;;;;19.00;16.00;;;;;10.27;79.97;99650.50;5034380;28;45829;-57
2021/12/26 07:22:20;;;;;;;;;16.25;16.25;;;;;10.27;80.19;99650.50;5034203;28;45413;-59
2021/12/26 07:24:47;;;;;;;;;16.75;15.00;;;;;10.27;80.39;99655.13;5034452;28;45608;-58
2021/12/26 07:27:16;;;;;;;;;16.00;15.40;;;;;10.28;80.52;99676.84;5024502;28;46727;-56
2021/12/26 07:29:42;;;;;;;;;19.20;16.20;;;;;10.29;80.98;99658.47;4971985;28;45441;-54
2021/12/26 07:32:08;;;;;;;;;19.40;17.60;;;;;10.29;80.02;99663.97;4999708;28;45457;-55
2021/12/26 07:34:34;;;;;;;;;22.50;20.00;;;;;10.31;80.17;99662.66;5017007;28;45788;-58
2021/12/26 07:37:00;;;;;;;;;17.75;16.00;;;;;10.31;81.16;99668.13;5016350;28;46486;-56
2021/12/26 07:39:26;;;;;;;;;18.80;17.20;;;;;10.31;81.05;99673.63;5034177;28;45350;-57
2021/12/26 07:41:51;;;;;;;;;20.75;20.75;;;;;10.33;80.31;99664.31;5015888;28;45416;-61
2021/12/26 07:44:17;;;;;;;;;20.50;15.75;;;;;10.31;81.15;99662.66;5016629;28;45570;-54
2021/12/26 07:46:42;;;;;;;;;20.00;18.75;;;;;10.35;80.32;99663.00;5036740;28;45398;-54
2021/12/26 07:49:08;;;;;;;;;18.00;17.75;;;;;10.39;81.22;99668.84;5037843;28;45312;-58
2021/12/26 07:51:33;;;;;;;;;19.50;17.00;;;;;10.38;80.48;99662.56;5037967;28;45323;-50
2021/12/26 07:54:01;;;;;;;;;20.50;17.50;;;;;10.32;81.13;99652.53;5037612;28;45354;-50
2021/12/26 07:56:27;;;;;;;;;21.80;20.00;;;;;10.41;81.18;99661.25;5037243;28;45786;-59
2021/12/26 07:58:52;;;;;;;;;26.75;23.75;;;;;10.28;80.98;99643.94;5037298;28;45447;-55
2021/12/26 08:01:18;;;;;;;;;19.50;17.75;;;;;9.98;80.71;99600.97;5037804;28;45301;-60
2021/12/26 08:03:44;;;;;;;;;19.00;18.25;;;;;10.39;80.60;99672.44;5019826;28;45652;-59
2021/12/26 08:06:13;;;;;;;;;24.75;22.00;;;;;10.46;80.79;99677.03;5019226;28;45375;-56
2021/12/26 08:08:38;;;;;;;;;21.60;19.60;;;;;10.47;81.26;99681.44;5037365;28;45571;-53
2021/12/26 08:11:04;;;;;;;;;20.75;20.00;;;;;10.44;80.92;99674.50;5037746;28;45357;-60
2021/12/26 08:13:31;;;;;;;;;21.75;18.00;;;;;10.46;80.94;99686.06;5037242;28;45427;-53
2021/12/26 08:15:57;;;;;;;;;23.00;17.20;;;;;10.41;80.96;99675.78;5037230;28;46197;-54
2021/12/26 08:18:22;;;;;;;;;26.25;20.50;;;;;10.40;81.11;99682.34;5037046;28;45495;-56
2021/12/26 08:20:48;;;;;;;;;18.75;17.75;;;;;10.37;81.36;99674.59;5035874;28;45362;-58
2021/12/26 08:23:13;;;;;;;;;25.50;22.50;;;;;10.44;80.97;99680.84;5037097;28;45324;-53
2021/12/26 08:25:39;;;;;;;;;17.00;15.50;;;;;10.51;80.97;99688.13;5010429;28;45972;-57
2021/12/26 08:28:05;;;;;;;;;27.25;24.00;;;;;10.49;80.79;99682.03;4965548;28;46124;-57
2021/12/26 08:30:30;;;;;;;;;23.50;19.75;;;;;10.52;80.80;99689.78;4962953;28;45461;-55
2021/12/26 08:32:59;;;;;;;;;20.00;18.50;;;;;10.57;80.54;99692.66;5018486;28;45473;-55
2021/12/26 08:35:26;;;;;;;;;20.80;20.60;;;;;10.58;80.74;99689.66;4995293;28;46379;-57
2021/12/26 08:37:51;;;;;;;;;31.00;25.20;;;;;10.51;81.20;99674.41;5011421;28;45859;-56
2021/12/26 08:40:17;;;;;;;;;24.25;23.25;;;;;10.61;80.65;99691.09;4978429;28;45388;-52
2021/12/26 08:42:43;;;;;;;;;21.50;20.00;;;;;10.62;80.90;99692.75;5013362;28;45367;-57
2021/12/26 08:45:09;;;;;;;;;26.75;21.75;;;;;10.59;81.36;99696.00;4983043;28;46956;-57
2021/12/26 08:47:34;;;;;;;;;20.80;18.20;;;;;10.64;80.41;99704.34;5032446;28;45708;-52
2021/12/26 08:50:00;;;;;;;;;28.00;20.00;;;;;10.65;80.88;99700.53;5012408;28;45351;-62
2021/12/26 08:52:25;;;;;;;;;17.50;15.75;;;;;10.63;80.62;99697.19;4978807;28;45441;-54
2021/12/26 08:54:51;;;;;;;;;21.25;19.50;;;;;10.63;80.96;99693.59;5012388;28;46521;-59
2021/12/26 08:57:16;;;;;;;;;17.25;16.25;;;;;10.64;81.04;99701.63;4993903;28;45524;-60
2021/12/26 08:59:42;;;;;;;;;24.00;19.00;;;;;10.68;80.43;99705.53;5012703;28;45988;-53
2021/12/26 09:02:08;;;;;;;;;19.75;15.50;;;;;10.52;80.38;99679.63;5011619;28;45572;-58
2021/12/26 09:04:35;;;;;;;;;22.25;21.00;;;;;10.72;80.75;99708.63;4994377;28;46264;-61
2021/12/26 09:07:00;;;;;;;;;19.60;17.20;;;;;10.61;80.60;99687.53;5012478;28;45402;-58
2021/12/26 09:09:28;;;;;;;;;26.75;20.00;;;;;10.72;81.09;99716.88;4994294;28;45803;-51
2021/12/26 09:11:54;;;;;;;;;19.60;17.80;;;;;10.73;80.56;99717.72;5012764;28;45700;-52
2021/12/26 09:14:20;;;;;;;;;17.75;17.75;;;;;10.59;80.65;99693.25;4993218;28;48076;-60
2021/12/26 09:16:45;;;;;;;;;18.25;15.75;;;;;10.73;80.09;99709.47;5012176;28;45722;-53
2021/12/26 09:19:11;;;;;;;;;24.00;17.75;;;;;10.77;80.06;99719.75;5012084;28;45806;-61
2021/12/26 09:21:36;;;;;;;;;19.75;19.25;;;;;10.68;81.02;99711.00;5016908;28;45977;-60
2021/12/26 09:24:03;;;;;;;;;27.00;19.50;;;;;10.89;80.43;99729.88;5031472;28;46420;-51
2021/12/26 09:26:29;;;;;;;;;20.60;19.40;;;;;10.92;80.25;99730.25;4993645;28;45812;-54
2021/12/26 09:28:54;;;;;;;;;19.00;15.75;;;;;10.91;79.76;99720.34;4984726;28;45631;-61
2021/12/26 09:31:20;;;;;;;;;25.00;16.00;;;;;10.98;79.70;99732.03;5003326;28;45930;-51
2021/12/26 09:33:46;;;;;;;;;22.75;17.75;;;;;11.03;80.25;99735.97;5013592;28;45461;-59
2021/12/26 09:36:11;;;;;;;;;19.75;17.25;;;;;11.03;80.17;99727.72;5013681;28;45856;-58
2021/12/26 09:38:37;;;;;;;;;19.25;15.75;;;;;11.06;79.63;99736.31;4993590;28;45403;-53
2021/12/26 09:41:02;;;;;;;;;18.75;15.75;;;;;11.05;79.58;99726.41;4994091;28;45757;-57
2021/12/26 09:43:28;;;;;;;;;19.25;16.00;;;;;11.00;80.12;99726.31;4977515;28;47847;-55
2021/12/26 09:45:53;;;;;;;;;21.50;17.25;;;;;10.93;79.94;99711.84;5011797;28;45689;-54
2021/12/26 09:48:19;;;;;;;;;16.00;14.50;;;;;11.09;79.58;99741.34;4977480;28;45344;-58
2021/12/26 09:50:45;;;;;;;;;15.25;15.00;;;;;10.93;79.88;99709.94;5010703;28;45473;-55
2021/12/26 09:53:11;;;;;;;;;327.50;251.50;;;;;11.12;79.87;99726.28;5011480;28;45951;-53
2021/12/26 09:55:36;;;;;;;;;26.50;23.25;;;;;11.13;79.36;99730.72;4993813;28;46229;-61
2021/12/26 09:58:02;;;;;;;;;19.00;15.00;;;;;11.08;79.20;99725.94;5005212;28;45526;-58
2021/12/26 10:00:30;;;;;;;;;18.25;16.00;;;;;11.16;79.71;99738.44;5011329;28;46611;-53
2021/12/26 10:03:16;;;;;;;;;14.00;14.00;;;;;10.98;79.66;99711.97;5009512;28;47024;-55
2021/12/26 10:06:00;;;;;;;;;16.60;14.40;;;;;11.17;79.52;99737.41;5002964;28;45433;-53
2021/12/26 10:08:27;;;;;;;;;15.40;14.80;;;;;11.21;79.61;99741.31;4992422;28;45449;-58
2021/12/26 10:11:14;;;;;;;;;15.80;12.40;;;;;11.19;79.75;99739.88;4993002;28;45793;-57
2021/12/26 10:13:47;;;;;;;;;12.60;11.80;;;;;11.22;78.99;99736.66;5009589;28;45874;-54
2021/12/26 10:16:14;;;;;;;;;16.00;13.00;;;;;11.22;79.19;99737.50;5024402;28;45394;-54
2021/12/26 10:18:41;;;;;;;;;11.60;9.00;;;;;11.11;79.43;99711.72;5030255;28;45890;-56
2021/12/26 10:21:25;;;;;;;;;16.20;12.80;;;;;11.24;79.47;99727.13;5030536;28;45432;-56
2021/12/26 10:23:51;;;;;;;;;17.60;12.20;;;;;11.24;79.88;99721.63;5015739;28;46796;-56
2021/12/26 10:26:20;;;;;;;;;10.80;10.00;;;;;11.14;79.72;99704.91;5007855;28;45784;-57
2021/12/26 10:29:14;;;;;;;;;12.20;10.40;;;;;11.24;79.74;99716.13;4999348;28;45519;-55
2021/12/26 10:32:10;;;;;;;;;20.80;14.20;;;;;11.29;79.57;99707.16;4994989;28;45573;-58
2021/12/26 10:34:37;;;;;;;;;16.00;15.00;;;;;11.31;79.36;99712.41;5025395;28;46664;-53
2021/12/26 10:37:06;;;;;;;;;10.20;9.60;;;;;11.33;79.58;99710.25;5030110;28;45584;-61
2021/12/26 10:39:47;;;;;;;;;16.80;12.60;;;;;11.36;79.23;99709.75;4991183;28;45869;-60
2021/12/26 10:42:19;;;;;;;;;11.60;9.00;;;;;11.35;79.19;99713.59;5005128;28;45446;-61
2021/12/26 10:44:48;;;;;;;;;15.20;13.80;;;;;11.39;79.68;99712.03;4989149;28;46637;-56
2021/12/26 10:47:16;;;;;;;;;15.80;13.20;;;;;11.32;79.43;99700.34;4990912;28;45629;-56
2021/12/26 10:49:59;;;;;;;;;14.80;14.00;;;;;11.31;79.54;99690.44;5008451;28;45513;-54
2021/12/26 10:52:30;;;;;;;;;14.40;10.40;;;;;11.42;79.79;99705.22;5010745;28;45783;-57
2021/12/26 10:55:11;;;;;;;;;15.20;11.60;;;;;11.43;79.49;99704.97;4992725;28;45791;-53
2021/12/26 10:57:44;;;;;;;;;15.20;12.80;;;;;11.16;80.00;99661.56;5010515;28;45436;-53
2021/12/26 11:00:16;;;;;;;;;15.60;11.80;;;;;11.36;79.86;99693.28;5010705;28;45387;-53
2021/12/26 11:02:47;;;;;;;;;15.60;12.00;;;;;11.21;80.27;99671.84;5009813;28;45385;-54
2021/12/26 11:05:24;;;;;;;;;13.40;13.40;;;;;11.28;80.93;99694.50;5009131;28;46504;-55
2021/12/26 11:07:53;;;;;;;;;15.40;12.60;;;;;11.28;80.66;99694.50;5008874;28;45544;-50
2021/12/26 11:10:33;;;;;;;;;14.40;13.40;;;;;11.30;80.68;99694.28;5009327;28;45507;-55
2021/12/26 11:13:01;;;;;;;;;13.40;12.80;;;;;11.29;80.65;99690.69;5009357;28;45799;-53
2021/12/26 11:15:34;;;;;;;;;11.40;10.20;;;;;11.25;80.62;99690.31;5007642;28;46868;-58
2021/12/26 11:18:06;;;;;;;;;14.40;14.20;;;;;11.29;81.12;99696.16;5010508;28;45800;-53
2021/12/26 11:20:39;;;;;;;;;15.00;11.00;;;;;11.28;80.72;99696.41;5010200;28;45451;-53
2021/12/26 11:23:09;;;;;;;;;11.80;9.60;;;;;11.30;81.12;99695.09;5030738;28;45883;-53